sensor_id;sensor_type;location;lat;lon;timestamp;P1;durP1;ratioP1;P2;durP2;ratioP2
9819;SDS011;4949;48.482;9.206;2023-08-06T00:02:12;0.80;;;0.80;;
9819;SDS011;4949;48.482;9.206;2023-08-06T00:07:15;0.93;;;0.93;;
9819;SDS011;4949;48.482;9.206;2023-08-06T00:12:18;0.80;;;0.80;;
9819;SDS011;4949;48.482;9.206;2023-08-06T00:17:22;0.90;;;0.90;;
9819;SDS011;4949;48.482;9.206;2023-08-06T00:22:25;0.80;;;0.80;;
9819;SDS011;4949;48.482;9.206;2023-08-06T00:27:25;1.47;;;1.37;;
9819;SDS011;4949;48.482;9.206;2023-08-06T00:32:26;1.83;;;1.73;;
9819;SDS011;4949;48.482;9.206;2023-08-06T00:37:29;0.80;;;0.80;;
9819;SDS011;4949;48.482;9.206;2023-08-06T00:42:30;0.90;;;0.90;;
9819;SDS011;4949;48.482;9.206;2023-08-06T00:47:37;0.80;;;0.80;;
9819;SDS011;4949;48.482;9.206;2023-08-06T00:52:39;0.80;;;0.80;;
9819;SDS011;4949;48.482;9.206;2023-08-06T00:57:43;1.00;;;1.00;;
9819;SDS011;4949;48.482;9.206;2023-08-06T01:02:44;0.80;;;0.80;;
9819;SDS011;4949;48.482;9.206;2023-08-06T01:13:08;1.70;;;1.60;;
9819;SDS011;4949;48.482;9.206;2023-08-06T01:18:16;1.10;;;1.10;;
9819;SDS011;4949;48.482;9.206;2023-08-06T01:23:17;1.10;;;1.10;;
9819;SDS011;4949;48.482;9.206;2023-08-06T01:28:27;0.90;;;0.90;;
9819;SDS011;4949;48.482;9.206;2023-08-06T01:33:39;0.90;;;0.90;;
9819;SDS011;4949;48.482;9.206;2023-08-06T01:38:45;0.80;;;0.80;;
9819;SDS011;4949;48.482;9.206;2023-08-06T01:43:46;0.80;;;0.80;;
9819;SDS011;4949;48.482;9.206;2023-08-06T01:48:47;0.90;;;0.90;;
9819;SDS011;4949;48.482;9.206;2023-08-06T01:53:48;1.10;;;1.10;;
9819;SDS011;4949;48.482;9.206;2023-08-06T01:58:54;0.80;;;0.80;;
9819;SDS011;4949;48.482;9.206;2023-08-06T02:03:57;0.90;;;0.90;;
9819;SDS011;4949;48.482;9.206;2023-08-06T02:08:58;0.80;;;0.80;;
9819;SDS011;4949;48.482;9.206;2023-08-06T02:13:58;0.87;;;0.87;;
9819;SDS011;4949;48.482;9.206;2023-08-06T02:19:01;0.93;;;0.93;;
9819;SDS011;4949;48.482;9.206;2023-08-06T02:24:02;0.80;;;0.80;;
9819;SDS011;4949;48.482;9.206;2023-08-06T02:29:03;0.90;;;0.90;;
9819;SDS011;4949;48.482;9.206;2023-08-06T02:34:09;0.90;;;0.90;;
9819;SDS011;4949;48.482;9.206;2023-08-06T02:39:10;0.80;;;0.80;;
9819;SDS011;4949;48.482;9.206;2023-08-06T02:44:13;0.80;;;0.80;;
9819;SDS011;4949;48.482;9.206;2023-08-06T02:49:13;0.90;;;0.90;;
9819;SDS011;4949;48.482;9.206;2023-08-06T02:54:15;0.90;;;0.90;;
9819;SDS011;4949;48.482;9.206;2023-08-06T02:59:16;0.90;;;0.90;;
9819;SDS011;4949;48.482;9.206;2023-08-06T03:04:17;1.27;;;1.17;;
9819;SDS011;4949;48.482;9.206;2023-08-06T03:09:20;0.90;;;0.90;;
9819;SDS011;4949;48.482;9.206;2023-08-06T03:14:20;0.90;;;0.90;;
9819;SDS011;4949;48.482;9.206;2023-08-06T03:19:26;1.00;;;1.00;;
9819;SDS011;4949;48.482;9.206;2023-08-06T03:24:27;1.00;;;1.00;;
9819;SDS011;4949;48.482;9.206;2023-08-06T03:29:27;0.90;;;0.90;;
9819;SDS011;4949;48.482;9.206;2023-08-06T03:34:30;0.80;;;0.80;;
9819;SDS011;4949;48.482;9.206;2023-08-06T03:39:31;1.10;;;1.10;;
9819;SDS011;4949;48.482;9.206;2023-08-06T03:44:34;0.90;;;0.90;;
9819;SDS011;4949;48.482;9.206;2023-08-06T03:49:37;1.67;;;1.57;;
9819;SDS011;4949;48.482;9.206;2023-08-06T03:54:40;0.80;;;0.80;;
9819;SDS011;4949;48.482;9.206;2023-08-06T03:59:43;0.90;;;0.90;;
9819;SDS011;4949;48.482;9.206;2023-08-06T04:04:43;0.90;;;0.90;;
9819;SDS011;4949;48.482;9.206;2023-08-06T04:09:51;0.80;;;0.80;;
9819;SDS011;4949;48.482;9.206;2023-08-06T04:14:58;1.60;;;1.50;;
9819;SDS011;4949;48.482;9.206;2023-08-06T04:19:59;0.90;;;0.90;;
9819;SDS011;4949;48.482;9.206;2023-08-06T04:25:00;1.00;;;1.00;;
9819;SDS011;4949;48.482;9.206;2023-08-06T04:30:01;0.90;;;0.90;;
9819;SDS011;4949;48.482;9.206;2023-08-06T04:35:04;1.00;;;1.00;;
9819;SDS011;4949;48.482;9.206;2023-08-06T04:40:06;1.00;;;0.90;;
9819;SDS011;4949;48.482;9.206;2023-08-06T04:45:07;0.90;;;0.90;;
9819;SDS011;4949;48.482;9.206;2023-08-06T04:50:08;1.00;;;1.00;;
9819;SDS011;4949;48.482;9.206;2023-08-06T04:55:09;1.00;;;1.00;;
9819;SDS011;4949;48.482;9.206;2023-08-06T05:00:10;0.90;;;0.90;;
9819;SDS011;4949;48.482;9.206;2023-08-06T05:05:11;0.90;;;0.90;;
9819;SDS011;4949;48.482;9.206;2023-08-06T05:10:14;0.90;;;0.90;;
9819;SDS011;4949;48.482;9.206;2023-08-06T05:15:15;0.90;;;0.90;;
9819;SDS011;4949;48.482;9.206;2023-08-06T05:20:16;0.80;;;0.80;;
9819;SDS011;4949;48.482;9.206;2023-08-06T05:25:17;1.00;;;1.00;;
9819;SDS011;4949;48.482;9.206;2023-08-06T05:30:20;4.83;;;1.20;;
9819;SDS011;4949;48.482;9.206;2023-08-06T05:35:23;1.10;;;1.10;;
9819;SDS011;4949;48.482;9.206;2023-08-06T05:40:23;0.90;;;0.90;;
9819;SDS011;4949;48.482;9.206;2023-08-06T05:45:26;1.40;;;1.30;;
9819;SDS011;4949;48.482;9.206;2023-08-06T05:50:29;0.90;;;0.90;;
9819;SDS011;4949;48.482;9.206;2023-08-06T05:55:32;0.90;;;0.90;;
9819;SDS011;4949;48.482;9.206;2023-08-06T06:00:34;0.80;;;0.80;;
9819;SDS011;4949;48.482;9.206;2023-08-06T06:05:37;0.90;;;0.90;;
9819;SDS011;4949;48.482;9.206;2023-08-06T06:10:41;0.90;;;0.90;;
9819;SDS011;4949;48.482;9.206;2023-08-06T06:15:46;0.90;;;0.90;;
9819;SDS011;4949;48.482;9.206;2023-08-06T06:20:47;0.80;;;0.80;;
9819;SDS011;4949;48.482;9.206;2023-08-06T06:25:48;0.90;;;0.90;;
9819;SDS011;4949;48.482;9.206;2023-08-06T06:30:51;1.17;;;1.17;;
9819;SDS011;4949;48.482;9.206;2023-08-06T06:35:55;0.80;;;0.80;;
9819;SDS011;4949;48.482;9.206;2023-08-06T06:40:58;0.90;;;0.90;;
9819;SDS011;4949;48.482;9.206;2023-08-06T06:45:59;0.90;;;0.90;;
9819;SDS011;4949;48.482;9.206;2023-08-06T06:51:00;0.80;;;0.80;;
9819;SDS011;4949;48.482;9.206;2023-08-06T06:56:01;0.90;;;0.90;;
9819;SDS011;4949;48.482;9.206;2023-08-06T07:01:04;1.00;;;1.00;;
9819;SDS011;4949;48.482;9.206;2023-08-06T07:06:04;0.90;;;0.90;;
9819;SDS011;4949;48.482;9.206;2023-08-06T07:11:06;0.90;;;0.90;;
9819;SDS011;4949;48.482;9.206;2023-08-06T07:16:07;0.90;;;0.90;;
9819;SDS011;4949;48.482;9.206;2023-08-06T07:21:08;0.90;;;0.90;;
9819;SDS011;4949;48.482;9.206;2023-08-06T07:26:09;0.90;;;0.90;;
9819;SDS011;4949;48.482;9.206;2023-08-06T07:31:09;1.10;;;1.10;;
9819;SDS011;4949;48.482;9.206;2023-08-06T07:36:13;0.90;;;0.90;;
9819;SDS011;4949;48.482;9.206;2023-08-06T07:41:15;0.87;;;0.87;;
9819;SDS011;4949;48.482;9.206;2023-08-06T07:46:16;0.90;;;0.90;;
9819;SDS011;4949;48.482;9.206;2023-08-06T07:51:16;0.90;;;0.90;;
9819;SDS011;4949;48.482;9.206;2023-08-06T07:56:17;0.93;;;0.93;;
9819;SDS011;4949;48.482;9.206;2023-08-06T08:01:20;0.90;;;0.90;;
9819;SDS011;4949;48.482;9.206;2023-08-06T08:06:21;0.80;;;0.80;;
9819;SDS011;4949;48.482;9.206;2023-08-06T08:11:21;0.83;;;0.83;;
9819;SDS011;4949;48.482;9.206;2023-08-06T08:16:27;0.80;;;0.80;;
9819;SDS011;4949;48.482;9.206;2023-08-06T08:21:32;0.80;;;0.80;;
9819;SDS011;4949;48.482;9.206;2023-08-06T08:26:35;0.80;;;0.80;;
9819;SDS011;4949;48.482;9.206;2023-08-06T08:31:36;1.63;;;1.53;;
9819;SDS011;4949;48.482;9.206;2023-08-06T08:36:39;0.80;;;0.80;;
9819;SDS011;4949;48.482;9.206;2023-08-06T08:41:40;0.87;;;0.87;;
9819;SDS011;4949;48.482;9.206;2023-08-06T08:46:42;0.90;;;0.90;;
9819;SDS011;4949;48.482;9.206;2023-08-06T08:51:44;0.80;;;0.80;;
9819;SDS011;4949;48.482;9.206;2023-08-06T08:56:46;0.80;;;0.80;;
9819;SDS011;4949;48.482;9.206;2023-08-06T09:01:47;0.90;;;0.90;;
9819;SDS011;4949;48.482;9.206;2023-08-06T09:06:51;0.87;;;0.87;;
9819;SDS011;4949;48.482;9.206;2023-08-06T09:12:02;0.80;;;0.80;;
9819;SDS011;4949;48.482;9.206;2023-08-06T09:17:16;0.80;;;0.80;;
9819;SDS011;4949;48.482;9.206;2023-08-06T09:22:20;0.90;;;0.90;;
9819;SDS011;4949;48.482;9.206;2023-08-06T09:27:20;0.90;;;0.90;;
9819;SDS011;4949;48.482;9.206;2023-08-06T09:32:23;0.90;;;0.90;;
9819;SDS011;4949;48.482;9.206;2023-08-06T09:37:29;0.90;;;0.90;;
9819;SDS011;4949;48.482;9.206;2023-08-06T09:42:36;0.90;;;0.90;;
9819;SDS011;4949;48.482;9.206;2023-08-06T09:47:37;0.90;;;0.90;;
9819;SDS011;4949;48.482;9.206;2023-08-06T09:52:38;0.90;;;0.90;;
9819;SDS011;4949;48.482;9.206;2023-08-06T09:57:41;0.90;;;0.90;;
9819;SDS011;4949;48.482;9.206;2023-08-06T10:02:43;1.17;;;1.17;;
9819;SDS011;4949;48.482;9.206;2023-08-06T10:07:50;0.90;;;0.90;;
9819;SDS011;4949;48.482;9.206;2023-08-06T10:12:52;0.90;;;0.90;;
9819;SDS011;4949;48.482;9.206;2023-08-06T10:18:00;0.80;;;0.80;;
9819;SDS011;4949;48.482;9.206;2023-08-06T10:23:03;0.83;;;0.83;;
9819;SDS011;4949;48.482;9.206;2023-08-06T10:28:08;0.80;;;0.80;;
9819;SDS011;4949;48.482;9.206;2023-08-06T10:33:19;0.90;;;0.90;;
9819;SDS011;4949;48.482;9.206;2023-08-06T10:38:22;0.90;;;0.90;;
9819;SDS011;4949;48.482;9.206;2023-08-06T10:43:36;0.90;;;0.90;;
9819;SDS011;4949;48.482;9.206;2023-08-06T10:48:45;0.80;;;0.80;;
9819;SDS011;4949;48.482;9.206;2023-08-06T10:53:49;0.80;;;0.80;;
9819;SDS011;4949;48.482;9.206;2023-08-06T10:58:51;0.80;;;0.80;;
9819;SDS011;4949;48.482;9.206;2023-08-06T11:04:01;0.80;;;0.80;;
9819;SDS011;4949;48.482;9.206;2023-08-06T11:09:04;0.90;;;0.90;;
9819;SDS011;4949;48.482;9.206;2023-08-06T11:14:05;2.13;;;1.93;;
9819;SDS011;4949;48.482;9.206;2023-08-06T11:19:07;1.00;;;1.00;;
9819;SDS011;4949;48.482;9.206;2023-08-06T11:24:08;0.80;;;0.80;;
9819;SDS011;4949;48.482;9.206;2023-08-06T11:29:10;0.90;;;0.90;;
9819;SDS011;4949;48.482;9.206;2023-08-06T11:34:11;0.80;;;0.80;;
9819;SDS011;4949;48.482;9.206;2023-08-06T11:39:12;0.80;;;0.80;;
9819;SDS011;4949;48.482;9.206;2023-08-06T11:44:13;0.90;;;0.90;;
9819;SDS011;4949;48.482;9.206;2023-08-06T11:49:16;0.80;;;0.80;;
9819;SDS011;4949;48.482;9.206;2023-08-06T11:54:30;0.90;;;0.90;;
9819;SDS011;4949;48.482;9.206;2023-08-06T11:59:37;0.80;;;0.80;;
9819;SDS011;4949;48.482;9.206;2023-08-06T12:04:58;0.80;;;0.80;;
9819;SDS011;4949;48.482;9.206;2023-08-06T12:10:02;0.90;;;0.90;;
9819;SDS011;4949;48.482;9.206;2023-08-06T12:15:04;0.80;;;0.80;;
9819;SDS011;4949;48.482;9.206;2023-08-06T12:20:09;0.80;;;0.80;;
9819;SDS011;4949;48.482;9.206;2023-08-06T12:25:12;1.00;;;1.00;;
9819;SDS011;4949;48.482;9.206;2023-08-06T12:30:14;0.80;;;0.80;;
9819;SDS011;4949;48.482;9.206;2023-08-06T12:35:14;1.30;;;1.03;;
9819;SDS011;4949;48.482;9.206;2023-08-06T12:40:16;1.07;;;1.07;;
9819;SDS011;4949;48.482;9.206;2023-08-06T12:45:17;1.10;;;1.00;;
9819;SDS011;4949;48.482;9.206;2023-08-06T12:50:21;0.87;;;0.87;;
9819;SDS011;4949;48.482;9.206;2023-08-06T12:55:23;1.00;;;1.00;;
9819;SDS011;4949;48.482;9.206;2023-08-06T13:00:29;1.20;;;1.10;;
9819;SDS011;4949;48.482;9.206;2023-08-06T13:05:30;0.80;;;0.80;;
9819;SDS011;4949;48.482;9.206;2023-08-06T13:10:30;1.40;;;1.07;;
9819;SDS011;4949;48.482;9.206;2023-08-06T13:15:31;1.10;;;1.03;;
9819;SDS011;4949;48.482;9.206;2023-08-06T13:20:32;0.93;;;0.93;;
9819;SDS011;4949;48.482;9.206;2023-08-06T13:25:39;1.03;;;1.00;;
9819;SDS011;4949;48.482;9.206;2023-08-06T13:30:40;1.00;;;1.00;;
9819;SDS011;4949;48.482;9.206;2023-08-06T13:35:44;3.00;;;1.87;;
9819;SDS011;4949;48.482;9.206;2023-08-06T13:40:47;1.10;;;1.10;;
9819;SDS011;4949;48.482;9.206;2023-08-06T13:45:48;1.10;;;1.00;;
9819;SDS011;4949;48.482;9.206;2023-08-06T13:50:49;0.80;;;0.80;;
9819;SDS011;4949;48.482;9.206;2023-08-06T13:55:50;1.10;;;1.00;;
9819;SDS011;4949;48.482;9.206;2023-08-06T14:00:51;0.90;;;0.90;;
9819;SDS011;4949;48.482;9.206;2023-08-06T14:05:54;0.80;;;0.80;;
9819;SDS011;4949;48.482;9.206;2023-08-06T14:10:57;1.00;;;1.00;;
9819;SDS011;4949;48.482;9.206;2023-08-06T14:16:01;1.47;;;1.03;;
9819;SDS011;4949;48.482;9.206;2023-08-06T14:21:02;0.80;;;0.80;;
9819;SDS011;4949;48.482;9.206;2023-08-06T14:26:02;0.90;;;0.90;;
9819;SDS011;4949;48.482;9.206;2023-08-06T14:31:03;0.90;;;0.90;;
9819;SDS011;4949;48.482;9.206;2023-08-06T14:36:04;0.90;;;0.90;;
9819;SDS011;4949;48.482;9.206;2023-08-06T14:41:05;1.03;;;1.03;;
9819;SDS011;4949;48.482;9.206;2023-08-06T14:46:08;0.80;;;0.80;;
9819;SDS011;4949;48.482;9.206;2023-08-06T14:51:09;0.90;;;0.90;;
9819;SDS011;4949;48.482;9.206;2023-08-06T14:56:10;1.40;;;1.30;;
9819;SDS011;4949;48.482;9.206;2023-08-06T15:01:10;0.87;;;0.87;;
9819;SDS011;4949;48.482;9.206;2023-08-06T15:06:12;0.90;;;0.90;;
9819;SDS011;4949;48.482;9.206;2023-08-06T15:11:15;0.90;;;0.90;;
9819;SDS011;4949;48.482;9.206;2023-08-06T15:16:16;0.90;;;0.90;;
9819;SDS011;4949;48.482;9.206;2023-08-06T15:21:19;1.00;;;1.00;;
9819;SDS011;4949;48.482;9.206;2023-08-06T15:26:20;1.00;;;1.00;;
9819;SDS011;4949;48.482;9.206;2023-08-06T15:31:21;0.90;;;0.90;;
9819;SDS011;4949;48.482;9.206;2023-08-06T15:36:26;0.90;;;0.90;;
9819;SDS011;4949;48.482;9.206;2023-08-06T15:41:26;0.90;;;0.90;;
9819;SDS011;4949;48.482;9.206;2023-08-06T15:46:30;1.07;;;1.03;;
9819;SDS011;4949;48.482;9.206;2023-08-06T15:51:31;1.10;;;1.10;;
9819;SDS011;4949;48.482;9.206;2023-08-06T15:56:31;0.90;;;0.90;;
9819;SDS011;4949;48.482;9.206;2023-08-06T16:01:32;1.00;;;1.00;;
9819;SDS011;4949;48.482;9.206;2023-08-06T16:06:33;0.87;;;0.87;;
9819;SDS011;4949;48.482;9.206;2023-08-06T16:11:36;0.90;;;0.90;;
9819;SDS011;4949;48.482;9.206;2023-08-06T16:16:36;0.80;;;0.80;;
9819;SDS011;4949;48.482;9.206;2023-08-06T16:21:42;1.20;;;1.10;;
9819;SDS011;4949;48.482;9.206;2023-08-06T16:26:43;1.67;;;1.57;;
9819;SDS011;4949;48.482;9.206;2023-08-06T16:31:46;1.10;;;1.00;;
9819;SDS011;4949;48.482;9.206;2023-08-06T16:36:51;1.77;;;1.67;;
9819;SDS011;4949;48.482;9.206;2023-08-06T16:41:51;3.60;;;2.83;;
9819;SDS011;4949;48.482;9.206;2023-08-06T16:46:52;0.93;;;0.93;;
9819;SDS011;4949;48.482;9.206;2023-08-06T16:51:53;0.90;;;0.90;;
9819;SDS011;4949;48.482;9.206;2023-08-06T16:56:53;0.93;;;0.93;;
9819;SDS011;4949;48.482;9.206;2023-08-06T17:01:56;1.00;;;1.00;;
9819;SDS011;4949;48.482;9.206;2023-08-06T17:06:59;1.30;;;1.20;;
9819;SDS011;4949;48.482;9.206;2023-08-06T17:12:00;1.53;;;1.03;;
9819;SDS011;4949;48.482;9.206;2023-08-06T17:17:01;1.13;;;1.03;;
9819;SDS011;4949;48.482;9.206;2023-08-06T17:22:04;0.90;;;0.90;;
9819;SDS011;4949;48.482;9.206;2023-08-06T17:27:07;1.30;;;1.20;;
9819;SDS011;4949;48.482;9.206;2023-08-06T17:32:08;2.80;;;2.60;;
9819;SDS011;4949;48.482;9.206;2023-08-06T17:37:11;11.97;;;10.20;;
9819;SDS011;4949;48.482;9.206;2023-08-06T17:42:12;1.60;;;1.50;;
9819;SDS011;4949;48.482;9.206;2023-08-06T17:47:12;1.47;;;1.37;;
9819;SDS011;4949;48.482;9.206;2023-08-06T17:52:13;63.57;;;44.63;;
9819;SDS011;4949;48.482;9.206;2023-08-06T17:57:14;117.47;;;76.20;;
9819;SDS011;4949;48.482;9.206;2023-08-06T18:02:15;27.97;;;21.03;;
9819;SDS011;4949;48.482;9.206;2023-08-06T18:07:18;21.90;;;9.47;;
9819;SDS011;4949;48.482;9.206;2023-08-06T18:12:21;1.40;;;1.30;;
9819;SDS011;4949;48.482;9.206;2023-08-06T18:17:22;1.00;;;1.00;;
9819;SDS011;4949;48.482;9.206;2023-08-06T18:22:23;1.10;;;1.00;;
9819;SDS011;4949;48.482;9.206;2023-08-06T18:27:23;0.90;;;0.90;;
9819;SDS011;4949;48.482;9.206;2023-08-06T18:32:24;0.80;;;0.80;;
9819;SDS011;4949;48.482;9.206;2023-08-06T18:37:25;0.90;;;0.90;;
9819;SDS011;4949;48.482;9.206;2023-08-06T18:42:25;6.80;;;1.63;;
9819;SDS011;4949;48.482;9.206;2023-08-06T18:47:29;1.40;;;1.30;;
9819;SDS011;4949;48.482;9.206;2023-08-06T18:52:30;1.20;;;1.20;;
9819;SDS011;4949;48.482;9.206;2023-08-06T18:57:33;1.00;;;1.00;;
9819;SDS011;4949;48.482;9.206;2023-08-06T19:02:34;0.90;;;0.90;;
9819;SDS011;4949;48.482;9.206;2023-08-06T19:07:37;1.03;;;1.03;;
9819;SDS011;4949;48.482;9.206;2023-08-06T19:12:38;1.20;;;1.10;;
9819;SDS011;4949;48.482;9.206;2023-08-06T19:17:39;0.90;;;0.90;;
9819;SDS011;4949;48.482;9.206;2023-08-06T19:22:40;1.00;;;1.00;;
9819;SDS011;4949;48.482;9.206;2023-08-06T19:27:43;0.90;;;0.90;;
9819;SDS011;4949;48.482;9.206;2023-08-06T19:32:44;1.10;;;1.10;;
9819;SDS011;4949;48.482;9.206;2023-08-06T19:37:45;0.90;;;0.90;;
9819;SDS011;4949;48.482;9.206;2023-08-06T19:42:46;1.30;;;1.20;;
9819;SDS011;4949;48.482;9.206;2023-08-06T19:47:47;1.40;;;1.30;;
9819;SDS011;4949;48.482;9.206;2023-08-06T19:52:47;3.10;;;3.00;;
9819;SDS011;4949;48.482;9.206;2023-08-06T19:57:48;1.37;;;1.30;;
9819;SDS011;4949;48.482;9.206;2023-08-06T20:02:49;0.87;;;0.87;;
9819;SDS011;4949;48.482;9.206;2023-08-06T20:07:49;1.93;;;1.83;;
9819;SDS011;4949;48.482;9.206;2023-08-06T20:12:50;1.00;;;1.00;;
9819;SDS011;4949;48.482;9.206;2023-08-06T20:17:51;0.90;;;0.90;;
9819;SDS011;4949;48.482;9.206;2023-08-06T20:22:52;1.50;;;1.30;;
9819;SDS011;4949;48.482;9.206;2023-08-06T20:27:52;1.00;;;1.00;;
9819;SDS011;4949;48.482;9.206;2023-08-06T20:32:56;1.37;;;1.27;;
9819;SDS011;4949;48.482;9.206;2023-08-06T20:37:59;1.43;;;1.20;;
9819;SDS011;4949;48.482;9.206;2023-08-06T20:42:59;0.83;;;0.83;;
9819;SDS011;4949;48.482;9.206;2023-08-06T20:48:00;0.97;;;0.97;;
9819;SDS011;4949;48.482;9.206;2023-08-06T20:53:01;0.97;;;0.97;;
9819;SDS011;4949;48.482;9.206;2023-08-06T20:58:02;1.10;;;1.00;;
9819;SDS011;4949;48.482;9.206;2023-08-06T21:03:02;2.60;;;1.50;;
9819;SDS011;4949;48.482;9.206;2023-08-06T21:08:03;1.00;;;1.00;;
9819;SDS011;4949;48.482;9.206;2023-08-06T21:13:07;2.10;;;1.10;;
9819;SDS011;4949;48.482;9.206;2023-08-06T21:18:07;2.00;;;1.90;;
9819;SDS011;4949;48.482;9.206;2023-08-06T21:23:09;1.00;;;1.00;;
9819;SDS011;4949;48.482;9.206;2023-08-06T21:28:10;0.90;;;0.90;;
9819;SDS011;4949;48.482;9.206;2023-08-06T21:33:10;1.10;;;1.00;;
9819;SDS011;4949;48.482;9.206;2023-08-06T21:38:11;1.10;;;1.10;;
9819;SDS011;4949;48.482;9.206;2023-08-06T21:43:12;1.20;;;1.10;;
9819;SDS011;4949;48.482;9.206;2023-08-06T21:48:12;0.90;;;0.90;;
9819;SDS011;4949;48.482;9.206;2023-08-06T21:53:13;1.00;;;1.00;;
9819;SDS011;4949;48.482;9.206;2023-08-06T21:58:14;1.17;;;1.17;;
9819;SDS011;4949;48.482;9.206;2023-08-06T22:03:17;1.43;;;1.20;;
9819;SDS011;4949;48.482;9.206;2023-08-06T22:08:20;0.90;;;0.90;;
9819;SDS011;4949;48.482;9.206;2023-08-06T22:13:21;1.10;;;1.10;;
9819;SDS011;4949;48.482;9.206;2023-08-06T22:18:21;1.30;;;1.20;;
9819;SDS011;4949;48.482;9.206;2023-08-06T22:23:26;0.90;;;0.90;;
9819;SDS011;4949;48.482;9.206;2023-08-06T22:28:26;1.10;;;1.10;;
9819;SDS011;4949;48.482;9.206;2023-08-06T22:33:27;1.13;;;1.13;;
9819;SDS011;4949;48.482;9.206;2023-08-06T22:38:31;0.90;;;0.90;;
9819;SDS011;4949;48.482;9.206;2023-08-06T22:43:35;0.90;;;0.90;;
9819;SDS011;4949;48.482;9.206;2023-08-06T22:48:35;1.23;;;1.13;;
9819;SDS011;4949;48.482;9.206;2023-08-06T22:53:38;1.10;;;1.00;;
9819;SDS011;4949;48.482;9.206;2023-08-06T22:58:39;1.00;;;1.00;;
9819;SDS011;4949;48.482;9.206;2023-08-06T23:03:40;0.93;;;0.93;;
9819;SDS011;4949;48.482;9.206;2023-08-06T23:08:41;0.90;;;0.90;;
9819;SDS011;4949;48.482;9.206;2023-08-06T23:13:41;1.00;;;1.00;;
9819;SDS011;4949;48.482;9.206;2023-08-06T23:18:44;0.93;;;0.93;;
9819;SDS011;4949;48.482;9.206;2023-08-06T23:23:45;1.20;;;1.10;;
9819;SDS011;4949;48.482;9.206;2023-08-06T23:28:49;1.30;;;1.23;;
9819;SDS011;4949;48.482;9.206;2023-08-06T23:33:52;1.50;;;1.40;;
9819;SDS011;4949;48.482;9.206;2023-08-06T23:38:56;1.10;;;1.10;;
9819;SDS011;4949;48.482;9.206;2023-08-06T23:43:59;0.97;;;0.97;;
9819;SDS011;4949;48.482;9.206;2023-08-06T23:49:00;1.00;;;1.00;;
9819;SDS011;4949;48.482;9.206;2023-08-06T23:54:00;1.07;;;1.07;;
9819;SDS011;4949;48.482;9.206;2023-08-06T23:59:01;1.23;;;1.17;;
